Time;durP1;ratioP1;P1;durP2;ratioP2;P2;SDS_P1;SDS_P2;PMS_P1;PMS_P2;Temp;Humidity;BMP_temperature;BMP_pressure;BME280_temperature;BME280_humidity;BME280_pressure;Samples;Min_cycle;Max_cycle;Signal;HPM_P1;HPM_P2
2021/01/21 00:00:35;;;;;;;2.90;1.23;;;9.70;81.10;;;;;;5069320;28;20032;-89
2021/01/21 00:03:33;;;;;;;2.15;1.23;;;9.70;81.20;;;;;;5050781;28;20025;-89
2021/01/21 00:06:10;;;;;;;;;;;;;;;;;;;;;
2021/01/21 00:08:45;;;;;;;2.85;1.25;;;9.70;81.20;;;;;;5060387;28;20088;-89
2021/01/21 00:11:28;;;;;;;1.63;0.88;;;9.70;81.20;;;;;;5070756;28;20029;-88
2021/01/21 00:13:57;;;;;;;2.05;1.20;;;9.70;81.30;;;;;;5045798;28;20024;-89
2021/01/21 00:16:46;;;;;;;2.58;1.10;;;9.70;81.30;;;;;;5085428;28;20029;-89
2021/01/21 00:19:38;;;;;;;4.05;1.23;;;9.70;81.20;;;;;;5081452;28;20036;-90
2021/01/21 00:22:25;;;;;;;;;;;;;;;;;;;;;
2021/01/21 00:25:32;;;;;;;2.33;1.00;;;9.70;81.30;;;;;;5070852;28;20079;-88
2021/01/21 00:31:06;;;;;;;2.90;1.00;;;9.70;81.30;;;;;;5047946;28;20033;-89
2021/01/21 00:34:01;;;;;;;3.70;1.20;;;9.70;81.30;;;;;;5036989;28;20051;-91
2021/01/21 00:37:01;;;;;;;3.40;1.13;;;9.70;81.20;;;;;;5026552;28;20036;-90
2021/01/21 00:39:48;;;;;;;2.35;1.08;;;9.70;81.00;;;;;;5069604;28;20495;-89
2021/01/21 00:42:50;;;;;;;;;;;;;;;;;;;;;
2021/01/21 00:45:45;;;;;;;2.55;1.05;;;9.70;81.10;;;;;;5054516;28;20041;-90
2021/01/21 00:48:28;;;;;;;;;;;;;;;;;;;;;
2021/01/21 00:51:35;;;;;;;1.83;1.05;;;9.70;81.00;;;;;;5071161;28;20394;-89
2021/01/21 00:54:13;;;;;;;;;;;;;;;;;;;;;
2021/01/21 00:56:41;;;;;;;2.38;1.02;;;9.70;80.90;;;;;;5064033;28;20478;-89
2021/01/21 00:59:51;;;;;;;2.75;1.33;;;9.70;80.70;;;;;;5072994;28;20030;-88
2021/01/21 01:02:41;;;;;;;1.98;1.23;;;9.70;80.80;;;;;;5057404;28;20033;-91
2021/01/21 01:05:18;;;;;;;2.83;1.25;;;9.70;80.80;;;;;;5050595;28;20082;-89
2021/01/21 01:08:14;;;;;;;2.40;1.38;;;9.70;80.80;;;;;;5055977;28;20090;-91
2021/01/21 01:11:14;;;;;;;3.20;1.20;;;9.70;80.80;;;;;;5064916;28;20392;-90
2021/01/21 01:13:53;;;;;;;4.18;1.23;;;9.70;80.70;;;;;;5042887;28;20056;-90
2021/01/21 01:16:47;;;;;;;1.52;1.10;;;9.70;80.70;;;;;;5068460;28;20051;-89
2021/01/21 01:19:39;;;;;;;2.00;1.20;;;9.80;80.60;;;;;;5061315;28;20068;-90
2021/01/21 01:22:15;;;;;;;4.07;1.00;;;9.80;80.50;;;;;;5067047;28;20074;-89
2021/01/21 01:24:45;;;;;;;4.38;1.85;;;9.80;81.00;;;;;;5047912;28;20029;-89
2021/01/21 01:27:28;;;;;;;3.03;1.05;;;9.80;80.30;;;;;;5058859;28;20048;-89
2021/01/21 01:30:27;;;;;;;;;;;;;;;;;;;;;
2021/01/21 01:33:18;;;;;;;3.70;0.98;;;9.80;80.20;;;;;;5072195;28;20039;-89
2021/01/21 01:35:58;;;;;;;4.17;1.30;;;9.80;80.10;;;;;;5062650;28;20037;-90
2021/01/21 01:38:49;;;;;;;2.58;1.10;;;9.80;80.10;;;;;;5067840;28;20032;-89
2021/01/21 01:41:19;;;;;;;3.95;1.23;;;9.80;80.00;;;;;;5041773;28;20025;-88
2021/01/21 01:43:55;;;;;;;2.10;1.00;;;9.80;80.10;;;;;;5047651;28;20053;-89
2021/01/21 01:46:53;;;;;;;;;;;;;;;;;;;;;
2021/01/21 01:49:37;;;;;;;;;;;;;;;;;;;;;
2021/01/21 01:52:44;;;;;;;;;;;;;;;;;;;;;
2021/01/21 01:55:17;;;;;;;1.63;0.98;;;9.80;79.90;;;;;;5044803;28;20040;-90
2021/01/21 01:58:18;;;;;;;;;;;;;;;;;;;;;
2021/01/21 02:00:56;;;;;;;1.30;0.57;;;9.80;79.80;;;;;;5051739;28;20357;-89
2021/01/21 02:04:02;;;;;;;2.95;1.25;;;9.80;79.80;;;;;;5033614;28;20028;-88
2021/01/21 02:07:01;;;;;;;1.38;0.90;;;9.90;79.60;;;;;;5048453;28;20088;-89
2021/01/21 02:10:03;;;;;;;3.40;1.30;;;9.90;79.60;;;;;;5018818;28;20049;-91
2021/01/21 02:12:51;;;;;;;2.33;0.95;;;9.90;79.30;;;;;;5029015;28;20037;-89
2021/01/21 02:15:56;;;;;;;;;;;;;;;;;;;;;
2021/01/21 02:19:05;;;;;;;;;;;;;;;;;;;;;
2021/01/21 02:22:23;;;;;;;;;;;;;;;;;;;;;
2021/01/21 02:25:23;;;;;;;3.53;1.10;;;10.00;79.30;;;;;;5046711;28;20033;-89
2021/01/21 02:28:07;;;;;;;2.85;1.00;;;10.00;79.90;;;;;;5020218;28;20484;-89
2021/01/21 02:31:05;;;;;;;;;;;;;;;;;;;;;
2021/01/21 02:33:43;;;;;;;4.30;1.20;;;10.00;80.50;;;;;;5037377;28;20487;-91
2021/01/21 02:36:20;;;;;;;2.15;1.00;;;10.00;80.60;;;;;;5019807;28;20029;-89
2021/01/21 02:39:02;;;;;;;;;;;;;;;;;;;;;
2021/01/21 02:41:55;;;;;;;1.65;1.10;;;10.00;80.50;;;;;;5047036;28;20035;-88
2021/01/21 02:44:53;;;;;;;;;;;;;;;;;;;;;
2021/01/21 02:47:34;;;;;;;2.92;1.33;;;10.00;80.50;;;;;;5070451;28;20068;-89
2021/01/21 02:50:27;;;;;;;;;;;;;;;;;;;;;
2021/01/21 02:53:29;;;;;;;3.00;0.93;;;10.10;80.50;;;;;;5069083;28;20052;-89
2021/01/21 02:56:33;;;;;;;;;;;;;;;;;;;;;
2021/01/21 02:59:39;;;;;;;;;;;;;;;;;;;;;
2021/01/21 03:05:22;;;;;;;;;;;;;;;;;;;;;
2021/01/21 03:08:05;;;;;;;2.78;1.02;;;10.10;80.90;;;;;;5065497;28;20029;-89
2021/01/21 03:10:58;;;;;;;2.10;1.00;;;10.10;80.80;;;;;;5058221;28;20040;-89
2021/01/21 03:13:38;;;;;;;2.33;0.90;;;10.10;80.90;;;;;;5073672;28;20475;-90
2021/01/21 03:16:19;;;;;;;2.42;0.90;;;10.10;80.80;;;;;;5071940;28;20084;-89
2021/01/21 03:19:19;;;;;;;1.35;0.88;;;10.20;80.80;;;;;;5059692;28;20024;-89
2021/01/21 03:21:52;;;;;;;2.10;0.93;;;10.20;80.90;;;;;;5055037;28;20021;-89
2021/01/21 03:24:31;;;;;;;3.22;1.30;;;10.20;80.80;;;;;;5046970;28;20471;-89
2021/01/21 03:27:24;;;;;;;;;;;;;;;;;;;;;
2021/01/21 03:30:17;;;;;;;2.25;0.90;;;10.30;80.80;;;;;;5067099;28;20055;-90
2021/01/21 03:32:48;;;;;;;2.28;0.93;;;10.40;80.70;;;;;;5059671;28;20302;-89
2021/01/21 03:35:19;;;;;;;1.40;0.73;;;10.40;80.50;;;;;;5040767;28;20472;-89
2021/01/21 03:38:11;;;;;;;1.60;1.05;;;10.40;80.60;;;;;;5057799;28;20371;-89
2021/01/21 03:40:55;;;;;;;;;;;;;;;;;;;;;
2021/01/21 03:43:55;;;;;;;1.88;0.75;;;10.50;80.80;;;;;;5059659;28;20029;-89
2021/01/21 03:46:40;;;;;;;2.20;0.85;;;10.50;80.80;;;;;;5043448;28;20056;-88
2021/01/21 03:49:26;;;;;;;;;;;;;;;;;;;;;
2021/01/21 03:52:15;;;;;;;2.15;1.00;;;10.60;80.30;;;;;;5063338;28;20418;-87
2021/01/21 03:55:04;;;;;;;3.22;1.42;;;10.70;79.90;;;;;;5061854;28;20784;-91
2021/01/21 03:57:55;;;;;;;1.90;0.65;;;10.70;79.70;;;;;;5050528;28;20044;-89
2021/01/21 04:00:52;;;;;;;1.13;0.70;;;10.80;79.60;;;;;;5038775;28;20041;-88
2021/01/21 04:03:32;;;;;;;1.88;0.90;;;10.80;79.70;;;;;;5044789;28;20519;-88
2021/01/21 04:06:30;;;;;;;1.45;0.80;;;10.80;79.70;;;;;;5050275;28;20041;-89
2021/01/21 04:09:16;;;;;;;1.40;0.63;;;10.90;79.80;;;;;;5053151;28;20423;-90
2021/01/21 04:12:22;;;;;;;1.95;0.90;;;10.90;80.30;;;;;;5042538;28;20467;-89
2021/01/21 04:15:14;;;;;;;;;;;;;;;;;;;;;
2021/01/21 04:24:00;;;;;;;;;;;;;;;;;;;;;
2021/01/21 04:26:36;;;;;;;3.03;1.38;;;10.70;83.00;;;;;;5075157;28;20046;-91
2021/01/21 04:29:25;;;;;;;3.63;0.60;;;10.60;84.20;;;;;;5060180;28;20028;-91
2021/01/21 04:31:53;;;;;;;2.25;0.63;;;10.40;82.10;;;;;;5047417;28;20479;-93
2021/01/21 04:34:28;;;;;;;2.60;0.70;;;10.00;81.70;;;;;;5053716;28;20056;-91
2021/01/21 04:37:03;;;;;;;1.58;0.80;;;9.70;81.90;;;;;;5037295;28;20514;-91
2021/01/21 04:39:48;;;;;;;2.50;0.50;;;9.40;82.10;;;;;;5063945;28;20025;-92
2021/01/21 04:42:26;;;;;;;2.10;0.52;;;9.10;82.10;;;;;;5046950;28;20476;-92
2021/01/21 04:44:55;;;;;;;3.13;0.57;;;8.90;82.10;;;;;;5057274;28;20080;-91
2021/01/21 04:47:25;;;;;;;2.15;0.50;;;8.80;82.10;;;;;;5072489;28;20048;-91
2021/01/21 04:49:56;;;;;;;2.78;0.85;;;8.70;82.00;;;;;;5064372;28;20045;-92
2021/01/21 04:52:28;;;;;;;3.83;0.88;;;8.50;82.10;;;;;;5067079;28;20020;-94
2021/01/21 04:55:46;;;;;;;;;;;;;;;;;;;;;
2021/01/21 04:58:33;;;;;;;3.63;0.60;;;8.40;82.20;;;;;;5023780;28;20384;-89
2021/01/21 05:01:29;;;;;;;5.85;0.90;;;8.30;82.50;;;;;;5058941;28;20104;-92
2021/01/21 05:04:43;;;;;;;;;;;;;;;;;;;;;
2021/01/21 05:07:58;;;;;;;5.32;1.05;;;8.10;82.80;;;;;;5070850;28;20044;-94
2021/01/21 05:13:55;;;;;;;;;;;;;;;;;;;;;
2021/01/21 05:16:45;;;;;;;2.22;0.50;;;7.90;83.40;;;;;;5071235;28;20136;-93
2021/01/21 05:19:51;;;;;;;;;;;;;;;;;;;;;
2021/01/21 05:22:44;;;;;;;3.08;0.73;;;7.70;83.40;;;;;;5072124;28;20182;-94
2021/01/21 05:28:48;;;;;;;;;;;;;;;;;;;;;
2021/01/21 05:31:29;;;;;;;;;;;;;;;;;;;;;
2021/01/21 05:34:26;;;;;;;2.92;0.70;;;7.60;83.40;;;;;;5066830;28;20043;-92
2021/01/21 05:37:16;;;;;;;;;;;;;;;;;;;;;
2021/01/21 05:40:00;;;;;;;2.03;0.77;;;7.60;83.30;;;;;;5071571;28;20032;-95
2021/01/21 05:55:27;;;;;;;3.15;0.40;;;7.50;83.40;;;;;;5078783;28;20037;-93
2021/01/21 06:02:02;;;;;;;3.50;0.98;;;7.50;83.50;;;;;;5061057;28;20032;-94
2021/01/21 06:07:49;;;;;;;2.80;0.70;;;7.50;83.40;;;;;;5035431;28;20037;-93
2021/01/21 06:10:51;;;;;;;;;;;;;;;;;;;;;
2021/01/21 06:13:46;;;;;;;3.30;0.50;;;7.50;83.20;;;;;;5064291;28;20033;-92
2021/01/21 06:16:48;;;;;;;;;;;;;;;;;;;;;
2021/01/21 06:19:54;;;;;;;4.53;1.00;;;7.50;83.20;;;;;;5077760;28;20038;-94
2021/01/21 06:23:14;;;;;;;3.35;0.80;;;7.40;82.70;;;;;;5040545;28;20028;-94
2021/01/21 06:26:19;;;;;;;;;;;;;;;;;;;;;
2021/01/21 06:29:17;;;;;;;3.08;0.80;;;7.40;82.20;;;;;;5072597;28;20551;-94
2021/01/21 06:32:13;;;;;;;;;;;;;;;;;;;;;
2021/01/21 06:35:13;;;;;;;;;;;;;;;;;;;;;
2021/01/21 06:41:33;;;;;;;12.95;4.57;;;7.40;82.10;;;;;;5050542;28;20067;-92
2021/01/21 06:44:17;;;;;;;;;;;;;;;;;;;;;
2021/01/21 06:47:22;;;;;;;;;;;;;;;;;;;;;
2021/01/21 06:53:15;;;;;;;5.28;1.52;;;7.20;80.40;;;;;;5057846;28;20378;-93
2021/01/21 06:55:54;;;;;;;5.25;1.38;;;7.20;80.50;;;;;;5066140;28;20021;-93
2021/01/21 06:59:16;;;;;;;;;;;;;;;;;;;;;
2021/01/21 07:01:56;;;;;;;;;;;;;;;;;;;;;
2021/01/21 07:12:03;;;;;;;;;;;;;;;;;;;;;
2021/01/21 07:18:30;;;;;;;;;;;;;;;;;;;;;
2021/01/21 07:31:17;;;;;;;4.70;1.55;;;6.80;78.30;;;;;;5005522;28;20033;-95
2021/01/21 07:34:18;;;;;;;;;;;;;;;;;;;;;
2021/01/21 07:37:20;;;;;;;;;;;;;;;;;;;;;
2021/01/21 07:40:09;;;;;;;8.43;1.73;;;6.70;78.00;;;;;;5009299;28;20045;-94
2021/01/21 07:49:31;;;;;;;5.43;1.25;;;6.60;78.30;;;;;;5026209;28;20053;-94
2021/01/21 07:52:59;;;;;;;;;;;;;;;;;;;;;
2021/01/21 07:59:37;;;;;;;5.80;1.63;;;6.50;78.00;;;;;;4984368;28;20449;-94
2021/01/21 08:06:22;;;;;;;;;;;;;;;;;;;;;
2021/01/21 08:12:38;;;;;;;8.93;1.73;;;6.50;78.30;;;;;;5017580;28;20108;-92
2021/01/21 08:19:19;;;;;;;;;;;;;;;;;;;;;
2021/01/21 08:21:57;;;;;;;9.18;1.85;;;6.40;78.40;;;;;;4966821;28;20090;-93
2021/01/21 08:25:27;;;;;;;5.60;1.40;;;6.50;78.50;;;;;;5037135;28;20020;-93
2021/01/21 08:35:14;;;;;;;;;;;;;;;;;;;;;
2021/01/21 08:38:22;;;;;;;;;;;;;;;;;;;;;
2021/01/21 08:41:06;;;;;;;9.32;1.63;;;6.50;79.10;;;;;;5021787;28;20465;-92
2021/01/21 08:44:14;;;;;;;7.28;2.10;;;6.50;79.00;;;;;;5016393;28;20052;-93
2021/01/21 08:53:54;;;;;;;7.15;1.95;;;6.50;79.30;;;;;;5046053;28;20040;-92
2021/01/21 08:57:19;;;;;;;;;;;;;;;;;;;;;
2021/01/21 09:03:14;;;;;;;9.38;2.90;;;6.60;80.00;;;;;;5029623;28;20033;-92
2021/01/21 09:06:03;;;;;;;10.00;2.88;;;6.50;80.20;;;;;;5021011;28;20104;-93
2021/01/21 09:09:08;;;;;;;;;;;;;;;;;;;;;
2021/01/21 09:15:55;;;;;;;6.60;1.60;;;6.70;80.90;;;;;;4972040;28;20037;-92
2021/01/21 09:19:26;;;;;;;;;;;;;;;;;;;;;
2021/01/21 09:54:17;;;;;;;;;;;;;;;;;;;;;
2021/01/21 10:30:06;;;;;;;;;;;;;;;;;;;;;
2021/01/21 10:37:12;;;;;;;;;;;;;;;;;;;;;
2021/01/21 10:47:52;;;;;;;;;;;;;;;;;;;;;
2021/01/21 10:52:00;;;;;;;;;;;;;;;;;;;;;
2021/01/21 10:58:08;;;;;;;;;;;;;;;;;;;;;
2021/01/21 11:29:16;;;;;;;8.15;1.75;;;8.00;80.50;;;;;;4841733;29;20458;-90
2021/01/21 11:36:21;;;;;;;;;;;;;;;;;;;;;
2021/01/21 12:14:52;;;;;;;;;;;;;;;;;;;;;
2021/01/21 12:53:24;;;;;;;;;;;;;;;;;;;;;
2021/01/21 13:00:24;;;;;;;;;;;;;;;;;;;;;
2021/01/21 13:06:21;;;;;;;;;;;;;;;;;;;;;
2021/01/21 13:09:08;;;;;;;;;;;;;;;;;;;;;
2021/01/21 13:16:00;;;;;;;8.23;1.75;;;8.40;78.50;;;;;;4943153;28;20027;-91
2021/01/21 13:22:19;;;;;;;2.72;1.23;;;8.40;78.10;;;;;;4879594;29;20044;-91
2021/01/21 13:25:27;;;;;;;6.63;1.20;;;8.40;78.20;;;;;;4993297;28;20072;-90
2021/01/21 13:32:06;;;;;;;5.80;1.20;;;8.40;78.10;;;;;;5045894;28;20044;-90
2021/01/21 13:35:13;;;;;;;;;;;;;;;;;;;;;
2021/01/21 13:52:28;;;;;;;;;;;;;;;;;;;;;
2021/01/21 13:55:22;;;;;;;;;;;;;;;;;;;;;
2021/01/21 13:58:48;;;;;;;;;;;;;;;;;;;;;
2021/01/21 14:01:50;;;;;;;;;;;;;;;;;;;;;
2021/01/21 14:11:50;;;;;;;;;;;;;;;;;;;;;
2021/01/21 14:14:55;;;;;;;;;;;;;;;;;;;;;
2021/01/21 14:18:11;;;;;;;5.00;1.23;;;8.60;77.40;;;;;;5053992;28;20025;-88
2021/01/21 14:21:13;;;;;;;2.70;0.90;;;8.50;77.30;;;;;;5022528;28;20052;-91
2021/01/21 14:24:17;;;;;;;;;;;;;;;;;;;;;
2021/01/21 14:27:12;;;;;;;6.05;1.13;;;8.50;77.50;;;;;;5043501;28;20051;-91
2021/01/21 14:30:30;;;;;;;7.60;1.77;;;8.50;77.40;;;;;;5035237;28;20036;-91
2021/01/21 14:33:28;;;;;;;;;;;;;;;;;;;;;
2021/01/21 14:36:06;;;;;;;6.50;1.35;;;8.50;77.40;;;;;;5030525;28;20033;-90
2021/01/21 14:39:06;;;;;;;4.90;1.23;;;8.40;77.30;;;;;;5038873;28;20109;-89
2021/01/21 14:48:20;;;;;;;4.03;1.20;;;8.30;76.90;;;;;;4984800;28;20046;-91
2021/01/21 14:51:22;;;;;;;3.60;0.98;;;8.30;77.10;;;;;;5028669;28;20033;-93
2021/01/21 14:54:37;;;;;;;;;;;;;;;;;;;;;
2021/01/21 14:58:04;;;;;;;;;;;;;;;;;;;;;
2021/01/21 15:04:41;;;;;;;;;;;;;;;;;;;;;
2021/01/21 15:07:21;;;;;;;;;;;;;;;;;;;;;
2021/01/21 15:10:13;;;;;;;2.90;0.80;;;8.20;77.20;;;;;;5044446;28;20025;-92
2021/01/21 15:19:52;;;;;;;;;;;;;;;;;;;;;
2021/01/21 15:25:51;;;;;;;;;;;;;;;;;;;;;
2021/01/21 15:29:13;;;;;;;3.53;1.50;;;8.20;76.80;;;;;;5025576;28;20549;-91
2021/01/21 15:31:56;;;;;;;;;;;;;;;;;;;;;
2021/01/21 15:35:12;;;;;;;4.68;1.17;;;8.10;76.90;;;;;;5017860;28;20025;-92
2021/01/21 15:38:06;;;;;;;4.13;1.40;;;8.10;76.70;;;;;;5012770;28;20033;-89
2021/01/21 15:41:00;;;;;;;5.35;1.27;;;8.10;76.50;;;;;;5007995;28;20087;-91
2021/01/21 15:54:17;;;;;;;9.57;3.30;;;8.10;76.80;;;;;;4991676;28;20065;-91
2021/01/21 16:04:40;;;;;;;;;;;;;;;;;;;;;
2021/01/21 16:07:38;;;;;;;6.72;1.05;;;8.00;76.30;;;;;;5006869;28;20056;-92
2021/01/21 16:20:47;;;;;;;;;;;;;;;;;;;;;
2021/01/21 16:26:55;;;;;;;4.70;1.23;;;7.90;77.00;;;;;;4969915;28;20459;-89
2021/01/21 16:30:09;;;;;;;3.88;1.20;;;7.90;77.70;;;;;;5026970;28;20029;-90
2021/01/21 16:37:06;;;;;;;;;;;;;;;;;;;;;
2021/01/21 16:39:46;;;;;;;;;;;;;;;;;;;;;
2021/01/21 16:42:20;;;;;;;4.85;0.90;;;7.90;77.80;;;;;;5028537;28;19917;-89
2021/01/21 16:52:03;;;;;;;;;;;;;;;;;;;;;
2021/01/21 16:54:52;;;;;;;4.50;1.30;;;7.80;78.30;;;;;;5024032;28;20064;-89
2021/01/21 16:58:01;;;;;;;;;;;;;;;;;;;;;
2021/01/21 17:01:21;;;;;;;;;;;;;;;;;;;;;
2021/01/21 17:03:59;;;;;;;;;;;;;;;;;;;;;
2021/01/21 17:06:28;;;;;;;4.43;1.60;;;7.80;78.80;;;;;;5040157;28;20065;-88
2021/01/21 17:09:20;;;;;;;5.90;1.35;;;7.80;78.80;;;;;;5016189;28;20031;-90
2021/01/21 17:12:37;;;;;;;;;;;;;;;;;;;;;
2021/01/21 17:15:17;;;;;;;5.72;1.30;;;7.80;79.00;;;;;;5035959;28;20487;-90
2021/01/21 17:18:02;;;;;;;;;;;;;;;;;;;;;
2021/01/21 17:21:03;;;;;;;;;;;;;;;;;;;;;
2021/01/21 17:23:59;;;;;;;7.82;1.33;;;7.80;79.30;;;;;;5040731;28;20056;-91
2021/01/21 17:32:05;;;;;;;5.88;1.02;;;7.80;79.50;;;;;;5008954;28;20112;-90
2021/01/21 17:34:52;;;;;;;;;;;;;;;;;;;;;
2021/01/21 17:41:03;;;;;;;;;;;;;;;;;;;;;
2021/01/21 17:43:44;;;;;;;6.35;1.33;;;7.90;79.60;;;;;;5017885;28;20028;-92
2021/01/21 17:46:42;;;;;;;5.95;1.90;;;7.80;79.50;;;;;;5008652;28;20052;-90
2021/01/21 17:49:31;;;;;;;5.72;1.55;;;7.80;79.60;;;;;;5006184;28;20032;-90
2021/01/21 17:52:15;;;;;;;4.80;1.67;;;7.80;79.60;;;;;;5011085;28;20037;-90
2021/01/21 17:57:47;;;;;;;6.10;1.42;;;7.80;79.60;;;;;;4995390;28;20030;-89
2021/01/21 18:03:43;;;;;;;6.25;1.55;;;7.80;79.60;;;;;;5004933;28;20040;-89
2021/01/21 18:06:38;;;;;;;6.30;1.55;;;7.90;79.70;;;;;;5028056;28;20034;-90
2021/01/21 18:13:12;;;;;;;;;;;;;;;;;;;;;
2021/01/21 18:16:22;;;;;;;4.38;1.27;;;7.90;79.40;;;;;;5048424;28;19908;-89
2021/01/21 18:18:47;;;;;;;4.35;1.35;;;7.80;79.60;;;;;;5035041;28;20110;-90
2021/01/21 18:21:41;;;;;;;5.45;1.67;;;7.80;79.80;;;;;;5047473;28;20481;-90
2021/01/21 18:27:23;;;;;;;2.03;0.77;;;7.80;80.10;;;;;;5048968;28;20049;-89
2021/01/21 18:33:11;;;;;;;5.15;1.58;;;7.80;80.70;;;;;;5051061;28;20099;-89
2021/01/21 18:35:49;;;;;;;5.20;1.13;;;7.70;81.10;;;;;;5046320;28;20054;-89
2021/01/21 18:38:51;;;;;;;3.97;1.20;;;7.70;81.30;;;;;;5048509;28;20083;-89
2021/01/21 18:42:05;;;;;;;;;;;;;;;;;;;;;
2021/01/21 18:44:49;;;;;;;4.22;1.10;;;7.60;81.70;;;;;;5035488;28;20384;-89
2021/01/21 18:47:28;;;;;;;3.25;0.90;;;7.60;82.00;;;;;;5042389;28;20041;-88
2021/01/21 18:50:29;;;;;;;5.72;1.38;;;7.60;82.30;;;;;;5052503;28;20115;-88
2021/01/21 18:53:14;;;;;;;3.08;1.30;;;7.60;82.60;;;;;;5050795;28;20033;-89
2021/01/21 18:56:19;;;;;;;;;;;;;;;;;;;;;
2021/01/21 18:59:17;;;;;;;5.78;1.15;;;7.60;83.10;;;;;;5057109;28;20417;-90
2021/01/21 19:01:53;;;;;;;5.38;1.02;;;7.50;83.30;;;;;;5062572;28;20055;-89
2021/01/21 19:07:50;;;;;;;;;;;;;;;;;;;;;
2021/01/21 19:11:15;;;;;;;;;;;;;;;;;;;;;
2021/01/21 19:14:22;;;;;;;3.80;1.02;;;7.40;84.30;;;;;;5037406;28;20035;-90
2021/01/21 19:17:30;;;;;;;;;;;;;;;;;;;;;
2021/01/21 19:20:07;;;;;;;4.22;1.20;;;7.40;84.80;;;;;;5052692;28;20051;-88
2021/01/21 19:22:59;;;;;;;4.63;0.90;;;7.40;84.90;;;;;;5043725;28;20037;-90
2021/01/21 19:26:03;;;;;;;3.63;1.00;;;7.40;85.20;;;;;;5038678;28;20022;-89
2021/01/21 19:28:50;;;;;;;;;;;;;;;;;;;;;
2021/01/21 19:35:02;;;;;;;3.50;1.20;;;7.40;85.80;;;;;;5026513;28;20033;-88
2021/01/21 19:37:40;;;;;;;2.75;1.00;;;7.30;86.00;;;;;;5059501;28;20036;-88
2021/01/21 19:40:40;;;;;;;;;;;;;;;;;;;;;
2021/01/21 19:43:21;;;;;;;3.47;1.35;;;7.30;86.30;;;;;;5050958;28;20092;-88
2021/01/21 19:46:02;;;;;;;;;;;;;;;;;;;;;
2021/01/21 19:49:06;;;;;;;5.05;1.50;;;7.30;86.50;;;;;;5066684;28;20487;-91
2021/01/21 19:51:58;;;;;;;4.93;1.35;;;7.30;86.80;;;;;;5054860;28;20033;-90
2021/01/21 19:58:27;;;;;;;4.68;0.93;;;7.30;87.10;;;;;;5043764;28;20041;-89
2021/01/21 20:01:34;;;;;;;;;;;;;;;;;;;;;
2021/01/21 20:05:04;;;;;;;5.60;1.08;;;7.20;87.60;;;;;;5010616;28;20060;-88
2021/01/21 20:20:59;;;;;;;;;;;;;;;;;;;;;
2021/01/21 20:26:31;;;;;;;9.93;2.85;;;7.10;89.00;;;;;;4971883;28;20067;-90
2021/01/21 20:29:19;;;;;;;5.75;2.00;;;7.00;89.30;;;;;;4960352;28;20037;-89
2021/01/21 20:32:09;;;;;;;7.93;2.17;;;7.00;89.50;;;;;;4972712;28;20202;-89
2021/01/21 20:37:48;;;;;;;10.73;3.28;;;7.00;90.00;;;;;;4988831;28;20485;-89
2021/01/21 20:43:37;;;;;;;8.20;2.45;;;6.90;90.20;;;;;;4996832;28;20562;-90
2021/01/21 20:46:14;;;;;;;6.15;2.13;;;6.90;90.20;;;;;;5031331;28;20674;-89
2021/01/21 20:48:59;;;;;;;;;;;;;;;;;;;;;
2021/01/21 20:51:44;;;;;;;5.10;1.83;;;6.90;90.40;;;;;;5018474;28;20043;-89
2021/01/21 20:54:39;;;;;;;8.10;2.67;;;6.90;90.40;;;;;;5012739;28;20046;-90
2021/01/21 20:57:37;;;;;;;8.02;2.50;;;6.90;90.40;;;;;;5013626;28;20559;-90
2021/01/21 21:00:23;;;;;;;;;;;;;;;;;;;;;
2021/01/21 21:03:06;;;;;;;4.38;2.00;;;6.90;90.60;;;;;;5030413;28;20050;-89
2021/01/21 21:06:02;;;;;;;;;;;;;;;;;;;;;
2021/01/21 21:08:40;;;;;;;7.72;2.63;;;6.90;90.60;;;;;;5031729;28;20044;-90
2021/01/21 21:11:20;;;;;;;;;;;;;;;;;;;;;
2021/01/21 21:13:53;;;;;;;3.78;2.20;;;6.90;90.60;;;;;;5031416;28;20035;-90
2021/01/21 21:16:29;;;;;;;5.18;2.15;;;6.90;90.50;;;;;;5014349;28;20037;-89
2021/01/21 21:19:24;;;;;;;4.57;1.83;;;6.90;90.50;;;;;;5003872;28;20041;-90
2021/01/21 21:22:04;;;;;;;4.47;1.98;;;7.00;90.60;;;;;;5024280;28;20025;-89
2021/01/21 21:24:44;;;;;;;5.95;2.35;;;7.00;90.60;;;;;;5001242;28;20061;-88
2021/01/21 21:27:17;;;;;;;3.50;1.37;;;7.00;90.60;;;;;;5015669;28;20045;-92
2021/01/21 21:29:46;;;;;;;4.50;1.52;;;7.00;90.60;;;;;;4987616;28;20121;-86
2021/01/21 21:32:36;;;;;;;2.20;1.13;;;7.00;90.60;;;;;;5016818;28;20021;-89
2021/01/21 21:35:34;;;;;;;2.55;0.88;;;7.10;91.00;;;;;;5001225;28;20493;-89
2021/01/21 21:38:05;;;;;;;4.13;1.35;;;7.10;90.70;;;;;;5011022;28;20125;-88
2021/01/21 21:43:39;;;;;;;2.53;1.30;;;7.20;90.80;;;;;;4999572;28;20128;-91
2021/01/21 21:49:43;;;;;;;0.95;0.80;;;7.30;91.00;;;;;;5034921;28;20069;-92
2021/01/21 21:52:41;;;;;;;1.95;0.80;;;7.40;91.10;;;;;;5007200;28;20208;-90
2021/01/21 21:55:34;;;;;;;2.60;0.80;;;7.40;91.50;;;;;;4982596;28;21132;-91
2021/01/21 22:05:46;;;;;;;;;;;;;;;;;;;;;
2021/01/21 22:09:03;;;;;;;2.42;0.85;;;7.80;91.60;;;;;;5030189;28;20394;-89
2021/01/21 22:11:51;;;;;;;0.80;0.63;;;7.80;91.60;;;;;;5021757;28;20026;-88
2021/01/21 22:14:47;;;;;;;1.17;0.70;;;7.80;91.70;;;;;;5028198;28;20030;-91
2021/01/21 22:18:23;;;;;;;1.10;0.90;;;7.80;91.70;;;;;;5033306;28;20054;-89
2021/01/21 22:20:55;;;;;;;;;;;;;;;;;;;;;
2021/01/21 22:23:44;;;;;;;0.70;0.60;;;7.90;91.80;;;;;;5028077;28;20113;-89
2021/01/21 22:27:06;;;;;;;;;;;;;;;;;;;;;
2021/01/21 22:30:10;;;;;;;1.73;0.70;;;8.00;92.00;;;;;;5046635;28;20163;-90
2021/01/21 22:32:45;;;;;;;1.75;0.80;;;8.00;91.90;;;;;;4985600;28;20488;-89
2021/01/21 22:35:24;;;;;;;1.90;1.00;;;8.00;91.90;;;;;;5008339;28;20045;-89
2021/01/21 22:38:05;;;;;;;;;;;;;;;;;;;;;
2021/01/21 22:40:43;;;;;;;;;;;8.00;92.00;;;;;;4991567;28;20037;-89
2021/01/21 22:47:04;;;;;;;2.95;1.00;;;8.00;92.00;;;;;;5014062;28;20049;-91
2021/01/21 22:49:39;;;;;;;1.52;1.10;;;8.00;92.10;;;;;;5018069;28;20044;-89
2021/01/21 22:52:12;;;;;;;1.30;1.13;;;8.00;92.10;;;;;;5002908;28;20068;-90
2021/01/21 22:54:49;;;;;;;1.63;0.98;;;8.10;92.20;;;;;;5005299;28;20041;-90
2021/01/21 22:57:35;;;;;;;2.45;1.00;;;8.10;92.20;;;;;;4991406;28;20062;-90
2021/01/21 23:06:46;;;;;;;1.90;1.25;;;8.10;92.30;;;;;;5002705;28;20036;-90
2021/01/21 23:09:28;;;;;;;1.55;0.95;;;8.20;92.30;;;;;;5031822;28;20041;-89
2021/01/21 23:12:21;;;;;;;1.05;0.90;;;8.20;92.30;;;;;;5003509;28;20117;-90
2021/01/21 23:15:06;;;;;;;;;;;;;;;;;;;;;
2021/01/21 23:17:41;;;;;;;2.03;1.25;;;8.30;92.40;;;;;;5017908;28;20041;-90
2021/01/21 23:20:48;;;;;;;1.73;1.20;;;8.30;92.50;;;;;;5028161;28;20026;-89
2021/01/21 23:24:03;;;;;;;;;;;;;;;;;;;;;
2021/01/21 23:26:55;;;;;;;2.05;1.10;;;8.30;92.50;;;;;;5019081;28;20032;-89
2021/01/21 23:30:00;;;;;;;;;;;;;;;;;;;;;
2021/01/21 23:32:31;;;;;;;3.22;1.13;;;8.40;92.60;;;;;;5026542;28;20033;-90
2021/01/21 23:35:17;;;;;;;2.78;1.30;;;8.40;92.70;;;;;;5013656;28;20030;-90
2021/01/21 23:37:59;;;;;;;;;;;;;;;;;;;;;
2021/01/21 23:41:01;;;;;;;2.65;1.00;;;8.40;93.00;;;;;;5039731;28;20081;-90
2021/01/21 23:44:14;;;;;;;4.93;1.20;;;8.40;92.70;;;;;;5045939;28;20026;-91
2021/01/21 23:46:40;;;;;;;3.28;1.70;;;8.50;92.70;;;;;;5040515;28;20037;-89
2021/01/21 23:49:27;;;;;;;;;;;;;;;;;;;;;
2021/01/21 23:52:04;;;;;;;2.08;1.33;;;8.50;92.70;;;;;;5009515;28;20110;-90
2021/01/21 23:54:44;;;;;;;1.20;1.10;;;8.40;92.50;;;;;;5005592;28;20029;-90
2021/01/21 23:57:23;;;;;;;;;;;;;;;;;;;;;
